sensor_id;sensor_type;location;lat;lon;timestamp;pressure;altitude;pressure_sealevel;temperature;humidity
75072;BME280;63651;55.728;38.022;2022-12-24T00:00:06;98514.34;;;15.79;42.89
75072;BME280;63651;55.728;38.022;2022-12-24T00:05:08;98505.31;;;15.79;42.90
75072;BME280;63651;55.728;38.022;2022-12-24T00:10:09;98517.63;;;15.81;43.10
75072;BME280;63651;55.728;38.022;2022-12-24T00:15:10;98508.03;;;15.79;42.95
75072;BME280;63651;55.728;38.022;2022-12-24T00:20:11;98517.63;;;15.81;42.79
75072;BME280;63651;55.728;38.022;2022-12-24T00:25:12;98522.00;;;15.77;43.01
75072;BME280;63651;55.728;38.022;2022-12-24T00:30:14;98527.75;;;15.81;43.07
75072;BME280;63651;55.728;38.022;2022-12-24T00:35:15;98528.84;;;15.80;42.65
75072;BME280;63651;55.728;38.022;2022-12-24T00:40:17;98533.25;;;15.81;43.07
75072;BME280;63651;55.728;38.022;2022-12-24T00:45:18;98521.47;;;15.80;42.94
75072;BME280;63651;55.728;38.022;2022-12-24T00:50:19;98509.69;;;15.80;42.76
75072;BME280;63651;55.728;38.022;2022-12-24T00:55:20;98508.59;;;15.81;43.08
75072;BME280;63651;55.728;38.022;2022-12-24T01:00:21;98510.78;;;15.79;42.91
75072;BME280;63651;55.728;38.022;2022-12-24T01:05:22;98519.81;;;15.79;43.13
75072;BME280;63651;55.728;38.022;2022-12-24T01:10:23;98522.00;;;15.77;43.43
75072;BME280;63651;55.728;38.022;2022-12-24T01:15:24;98523.91;;;15.77;43.21
75072;BME280;63651;55.728;38.022;2022-12-24T01:20:25;98524.47;;;15.79;42.89
75072;BME280;63651;55.728;38.022;2022-12-24T01:25:31;98534.34;;;15.80;43.07
75072;BME280;63651;55.728;38.022;2022-12-24T01:30:32;98541.72;;;15.79;43.07
75072;BME280;63651;55.728;38.022;2022-12-24T01:35:33;98542.53;;;15.80;42.74
75072;BME280;63651;55.728;38.022;2022-12-24T01:40:34;98541.47;;;15.81;42.83
75072;BME280;63651;55.728;38.022;2022-12-24T01:51:18;98537.91;;;15.80;42.09
75072;BME280;63651;55.728;38.022;2022-12-24T01:56:23;98527.75;;;15.81;43.00
75072;BME280;63651;55.728;38.022;2022-12-24T02:01:25;98536.25;;;15.79;43.00
75072;BME280;63651;55.728;38.022;2022-12-24T02:06:26;98530.50;;;15.81;43.09
75072;BME280;63651;55.728;38.022;2022-12-24T02:11:29;98520.03;;;15.73;42.56
75072;BME280;63651;55.728;38.022;2022-12-24T02:16:51;98541.47;;;15.81;42.02
75072;BME280;63651;55.728;38.022;2022-12-24T02:21:54;98543.38;;;15.80;42.97
75072;BME280;63651;55.728;38.022;2022-12-24T02:38:02;98552.16;;;15.82;42.92
75072;BME280;63651;55.728;38.022;2022-12-24T02:43:09;98553.75;;;15.78;42.64
75072;BME280;63651;55.728;38.022;2022-12-24T02:48:14;98571.84;;;15.79;42.92
75072;BME280;63651;55.728;38.022;2022-12-24T02:53:16;98569.66;;;15.81;42.82
75072;BME280;63651;55.728;38.022;2022-12-24T03:03:39;98549.91;;;15.74;41.84
75072;BME280;63651;55.728;38.022;2022-12-24T03:08:57;98555.41;;;15.79;42.04
75072;BME280;63651;55.728;38.022;2022-12-24T03:14:00;98545.84;;;15.82;42.81
75072;BME280;63651;55.728;38.022;2022-12-24T03:19:02;98542.00;;;15.83;43.07
75072;BME280;63651;55.728;38.022;2022-12-24T03:24:03;98550.22;;;15.83;42.80
75072;BME280;63651;55.728;38.022;2022-12-24T03:29:06;98542.84;;;15.83;42.91
75072;BME280;63651;55.728;38.022;2022-12-24T03:34:08;98532.72;;;15.84;42.57
75072;BME280;63651;55.728;38.022;2022-12-24T03:39:09;98522.28;;;15.81;42.69
75072;BME280;63651;55.728;38.022;2022-12-24T03:44:10;98544.75;;;15.83;42.61
75072;BME280;63651;55.728;38.022;2022-12-24T03:49:11;98553.78;;;15.83;42.53
75072;BME280;63651;55.728;38.022;2022-12-24T03:54:12;98552.97;;;15.83;42.62
75072;BME280;63651;55.728;38.022;2022-12-24T03:59:13;98558.72;;;15.81;42.89
75072;BME280;63651;55.728;38.022;2022-12-24T04:04:14;98541.75;;;15.84;42.61
75072;BME280;63651;55.728;38.022;2022-12-24T04:09:16;98546.41;;;15.84;42.67
75072;BME280;63651;55.728;38.022;2022-12-24T04:14:17;98550.22;;;15.83;42.79
75072;BME280;63651;55.728;38.022;2022-12-24T04:19:18;98558.19;;;15.84;42.65
75072;BME280;63651;55.728;38.022;2022-12-24T04:24:19;98557.91;;;15.86;42.54
75072;BME280;63651;55.728;38.022;2022-12-24T04:29:20;98553.78;;;15.83;42.35
75072;BME280;63651;55.728;38.022;2022-12-24T04:34:21;98547.22;;;15.84;42.56
75072;BME280;63651;55.728;38.022;2022-12-24T04:39:22;98545.59;;;15.83;42.57
75072;BME280;63651;55.728;38.022;2022-12-24T04:44:23;98540.09;;;15.83;42.37
75072;BME280;63651;55.728;38.022;2022-12-24T04:49:24;98540.94;;;15.84;42.33
75072;BME280;63651;55.728;38.022;2022-12-24T04:54:25;98534.63;;;15.83;42.38
75072;BME280;63651;55.728;38.022;2022-12-24T04:59:26;98528.59;;;15.81;42.16
75072;BME280;63651;55.728;38.022;2022-12-24T05:04:27;98535.72;;;15.82;42.66
75072;BME280;63651;55.728;38.022;2022-12-24T05:09:28;98535.19;;;15.85;42.85
75072;BME280;63651;55.728;38.022;2022-12-24T05:14:29;98547.78;;;15.86;43.45
75072;BME280;63651;55.728;38.022;2022-12-24T05:19:31;98544.53;;;15.89;43.44
75072;BME280;63651;55.728;38.022;2022-12-24T05:24:32;98546.72;;;15.92;43.29
75072;BME280;63651;55.728;38.022;2022-12-24T05:29:52;98526.75;;;15.92;43.00
75072;BME280;63651;55.728;38.022;2022-12-24T05:34:53;98521.00;;;15.93;42.67
75072;BME280;63651;55.728;38.022;2022-12-24T05:39:54;98515.25;;;15.95;42.53
75072;BME280;63651;55.728;38.022;2022-12-24T05:44:55;98521.56;;;15.95;42.46
75072;BME280;63651;55.728;38.022;2022-12-24T05:49:57;98514.97;;;15.96;42.15
75072;BME280;63651;55.728;38.022;2022-12-24T05:54:58;98514.97;;;15.96;41.90
75072;BME280;63651;55.728;38.022;2022-12-24T05:59:59;98520.47;;;15.96;41.41
75072;BME280;63651;55.728;38.022;2022-12-24T06:05:00;98511.16;;;15.97;41.31
75072;BME280;63651;55.728;38.022;2022-12-24T06:10:01;98508.16;;;15.99;40.86
75072;BME280;63651;55.728;38.022;2022-12-24T06:15:02;98505.16;;;16.00;40.97
75072;BME280;63651;55.728;38.022;2022-12-24T06:20:04;98498.56;;;16.02;40.93
75072;BME280;63651;55.728;38.022;2022-12-24T06:25:06;98506.78;;;16.02;40.28
75072;BME280;63651;55.728;38.022;2022-12-24T06:30:07;98507.94;;;16.11;39.73
75072;BME280;63651;55.728;38.022;2022-12-24T06:35:08;98496.69;;;16.07;39.95
75072;BME280;63651;55.728;38.022;2022-12-24T06:40:09;98494.75;;;16.03;40.14
75072;BME280;63651;55.728;38.022;2022-12-24T06:45:11;98486.53;;;16.03;40.47
75072;BME280;63651;55.728;38.022;2022-12-24T06:50:12;98494.75;;;16.03;41.13
75072;BME280;63651;55.728;38.022;2022-12-24T06:55:13;98502.41;;;16.00;41.29
75072;BME280;63651;55.728;38.022;2022-12-24T07:00:14;98492.13;;;16.28;40.96
75072;BME280;63651;55.728;38.022;2022-12-24T07:05:16;98498.59;;;16.07;41.59
75072;BME280;63651;55.728;38.022;2022-12-24T07:10:18;98495.00;;;16.01;42.18
75072;BME280;63651;55.728;38.022;2022-12-24T07:15:20;98484.94;;;16.12;42.80
75072;BME280;63651;55.728;38.022;2022-12-24T07:20:21;98492.56;;;16.05;42.75
75072;BME280;63651;55.728;38.022;2022-12-24T07:25:22;98487.34;;;16.03;42.82
75072;BME280;63651;55.728;38.022;2022-12-24T07:30:23;98492.00;;;16.03;42.76
75072;BME280;63651;55.728;38.022;2022-12-24T07:35:24;98489.25;;;16.03;42.88
75072;BME280;63651;55.728;38.022;2022-12-24T07:40:25;98495.84;;;16.02;42.70
75072;BME280;63651;55.728;38.022;2022-12-24T07:45:26;98486.53;;;16.03;42.85
75072;BME280;63651;55.728;38.022;2022-12-24T07:50:27;98488.44;;;16.02;42.53
75072;BME280;63651;55.728;38.022;2022-12-24T07:55:28;98484.88;;;16.02;42.67
75072;BME280;63651;55.728;38.022;2022-12-24T08:00:29;98490.63;;;16.00;42.40
75072;BME280;63651;55.728;38.022;2022-12-24T08:05:35;98481.59;;;15.99;42.30
75072;BME280;63651;55.728;38.022;2022-12-24T08:10:43;98479.97;;;16.04;41.99
75072;BME280;63651;55.728;38.022;2022-12-24T08:15:45;98488.19;;;16.04;42.44
75072;BME280;63651;55.728;38.022;2022-12-24T08:20:46;98491.19;;;16.02;42.08
75072;BME280;63651;55.728;38.022;2022-12-24T08:25:47;98492.84;;;16.03;42.15
75072;BME280;63651;55.728;38.022;2022-12-24T08:30:49;98490.09;;;16.03;42.32
75072;BME280;63651;55.728;38.022;2022-12-24T08:35:53;98495.03;;;16.06;42.00
75072;BME280;63651;55.728;38.022;2022-12-24T08:40:55;98490.66;;;16.05;42.25
75072;BME280;63651;55.728;38.022;2022-12-24T08:46:01;98476.16;;;16.15;41.96
75072;BME280;63651;55.728;38.022;2022-12-24T08:51:07;98487.38;;;16.91;41.32
75072;BME280;63651;55.728;38.022;2022-12-24T08:56:09;98489.44;;;16.48;41.56
75072;BME280;63651;55.728;38.022;2022-12-24T09:01:13;98483.94;;;16.38;41.94
75072;BME280;63651;55.728;38.022;2022-12-24T09:06:15;98471.03;;;16.33;41.99
75072;BME280;63651;55.728;38.022;2022-12-24T09:11:17;98474.28;;;16.25;42.07
75072;BME280;63651;55.728;38.022;2022-12-24T09:16:18;98475.13;;;16.26;42.11
75072;BME280;63651;55.728;38.022;2022-12-24T09:21:20;98466.34;;;16.24;42.28
75072;BME280;63651;55.728;38.022;2022-12-24T09:26:23;98459.75;;;16.20;42.28
75072;BME280;63651;55.728;38.022;2022-12-24T09:31:25;98461.41;;;16.21;42.20
75072;BME280;63651;55.728;38.022;2022-12-24T09:36:26;98450.97;;;16.18;42.29
75072;BME280;63651;55.728;38.022;2022-12-24T09:47:35;98443.28;;;16.15;41.76
75072;BME280;63651;55.728;38.022;2022-12-24T09:52:42;98448.22;;;16.18;42.10
75072;BME280;63651;55.728;38.022;2022-12-24T09:57:46;98436.72;;;16.16;42.18
75072;BME280;63651;55.728;38.022;2022-12-24T10:02:49;98434.81;;;16.16;41.95
75072;BME280;63651;55.728;38.022;2022-12-24T10:13:45;98442.47;;;16.19;41.72
75072;BME280;63651;55.728;38.022;2022-12-24T10:19:03;98432.06;;;16.16;41.30
75072;BME280;63651;55.728;38.022;2022-12-24T10:29:22;98437.56;;;16.26;41.89
75072;BME280;63651;55.728;38.022;2022-12-24T10:34:29;98414.78;;;16.11;42.04
75072;BME280;63651;55.728;38.022;2022-12-24T10:39:33;98439.47;;;16.21;41.66
75072;BME280;63651;55.728;38.022;2022-12-24T10:44:34;98437.09;;;16.60;40.76
75072;BME280;63651;55.728;38.022;2022-12-24T10:49:41;98445.00;;;16.41;41.40
75072;BME280;63651;55.728;38.022;2022-12-24T11:00:22;98446.09;;;16.35;41.14
75072;BME280;63651;55.728;38.022;2022-12-24T11:05:29;98450.19;;;16.32;40.96
75072;BME280;63651;55.728;38.022;2022-12-24T11:10:34;98443.91;;;16.32;40.85
75072;BME280;63651;55.728;38.022;2022-12-24T11:15:36;98459.25;;;16.33;40.93
75072;BME280;63651;55.728;38.022;2022-12-24T11:20:37;98444.72;;;16.32;40.91
75072;BME280;63651;55.728;38.022;2022-12-24T11:25:40;98456.22;;;16.29;40.89
75072;BME280;63651;55.728;38.022;2022-12-24T11:31:18;98460.88;;;16.29;40.76
75072;BME280;63651;55.728;38.022;2022-12-24T11:36:22;98443.31;;;16.20;40.62
75072;BME280;63651;55.728;38.022;2022-12-24T11:41:24;98461.69;;;16.24;40.99
75072;BME280;63651;55.728;38.022;2022-12-24T11:51:27;98469.09;;;16.29;40.78
75072;BME280;63651;55.728;38.022;2022-12-24T11:56:31;98475.66;;;16.28;40.93
75072;BME280;63651;55.728;38.022;2022-12-24T12:01:37;98489.13;;;16.40;40.79
75072;BME280;63651;55.728;38.022;2022-12-24T12:07:29;98492.69;;;16.35;40.88
75072;BME280;63651;55.728;38.022;2022-12-24T12:12:07;98505.28;;;16.31;40.79
75072;BME280;63651;55.728;38.022;2022-12-24T12:27:53;98505.78;;;16.23;42.62
75072;BME280;63651;55.728;38.022;2022-12-24T12:38:24;98504.66;;;16.14;43.66
75072;BME280;63651;55.728;38.022;2022-12-24T12:43:37;98524.44;;;16.26;43.72
75072;BME280;63651;55.728;38.022;2022-12-24T12:59:37;98551.81;;;16.21;43.79
75072;BME280;63651;55.728;38.022;2022-12-24T13:25:26;98571.03;;;16.26;44.39
75072;BME280;63651;55.728;38.022;2022-12-24T13:30:38;98575.88;;;16.66;48.02
75072;BME280;63651;55.728;38.022;2022-12-24T13:36:00;98578.75;;;16.39;47.35
75072;BME280;63651;55.728;38.022;2022-12-24T13:57:38;98604.13;;;16.14;49.31
75072;BME280;63651;55.728;38.022;2022-12-24T14:03:14;98617.00;;;16.14;49.73
75072;BME280;63651;55.728;38.022;2022-12-24T14:18:40;98632.31;;;16.10;51.11
75072;BME280;63651;55.728;38.022;2022-12-24T14:23:57;98644.63;;;16.07;50.12
75072;BME280;63651;55.728;38.022;2022-12-24T14:29:06;98644.06;;;16.05;49.47
75072;BME280;63651;55.728;38.022;2022-12-24T14:34:14;98654.19;;;16.05;51.52
75072;BME280;63651;55.728;38.022;2022-12-24T14:44:40;98665.38;;;15.98;49.66
75072;BME280;63651;55.728;38.022;2022-12-24T14:54:47;98676.31;;;15.98;51.62
75072;BME280;63651;55.728;38.022;2022-12-24T14:59:57;98690.53;;;15.95;50.40
75072;BME280;63651;55.728;38.022;2022-12-24T15:05:10;98704.75;;;15.92;50.29
75072;BME280;63651;55.728;38.022;2022-12-24T15:10:33;98697.38;;;15.92;48.46
75072;BME280;63651;55.728;38.022;2022-12-24T15:15:34;98694.91;;;15.91;51.89
75072;BME280;63651;55.728;38.022;2022-12-24T15:20:36;98703.38;;;15.89;50.99
75072;BME280;63651;55.728;38.022;2022-12-24T15:25:37;98703.06;;;15.86;50.95
75072;BME280;63651;55.728;38.022;2022-12-24T15:30:38;98703.31;;;15.84;50.73
75072;BME280;63651;55.728;38.022;2022-12-24T15:35:52;98714.28;;;15.84;49.12
75072;BME280;63651;55.728;38.022;2022-12-24T15:40:54;98726.06;;;15.85;50.54
75072;BME280;63651;55.728;38.022;2022-12-24T15:45:56;98725.25;;;15.84;50.62
75072;BME280;63651;55.728;38.022;2022-12-24T15:50:59;98716.94;;;15.74;52.38
75072;BME280;63651;55.728;38.022;2022-12-24T15:56:07;98739.19;;;15.83;51.44
75072;BME280;63651;55.728;38.022;2022-12-24T16:06:12;98755.31;;;15.79;51.65
75072;BME280;63651;55.728;38.022;2022-12-24T16:11:19;98765.19;;;15.36;44.90
75072;BME280;63651;55.728;38.022;2022-12-24T16:16:30;98774.34;;;15.47;44.53
75072;BME280;63651;55.728;38.022;2022-12-24T16:21:36;98776.13;;;15.36;44.63
75072;BME280;63651;55.728;38.022;2022-12-24T16:26:37;98780.97;;;15.29;45.87
75072;BME280;63651;55.728;38.022;2022-12-24T16:36:49;98790.22;;;15.23;43.88
75072;BME280;63651;55.728;38.022;2022-12-24T16:41:51;98790.41;;;15.17;43.71
75072;BME280;63651;55.728;38.022;2022-12-24T16:47:24;98804.38;;;15.20;43.41
75072;BME280;63651;55.728;38.022;2022-12-24T16:52:28;98814.94;;;15.12;43.26
75072;BME280;63651;55.728;38.022;2022-12-24T16:57:32;98790.75;;;15.03;42.98
75072;BME280;63651;55.728;38.022;2022-12-24T17:02:33;98824.56;;;15.14;43.07
75072;BME280;63651;55.728;38.022;2022-12-24T17:07:34;98821.00;;;15.14;43.06
75072;BME280;63651;55.728;38.022;2022-12-24T17:12:36;98823.66;;;15.09;42.90
75072;BME280;63651;55.728;38.022;2022-12-24T17:17:37;98838.50;;;15.13;43.08
75072;BME280;63651;55.728;38.022;2022-12-24T17:22:38;98838.50;;;15.13;42.61
75072;BME280;63651;55.728;38.022;2022-12-24T17:27:39;98846.38;;;15.09;43.31
75072;BME280;63651;55.728;38.022;2022-12-24T17:32:40;98847.78;;;15.12;42.75
75072;BME280;63651;55.728;38.022;2022-12-24T17:37:42;98862.53;;;15.11;42.36
75072;BME280;63651;55.728;38.022;2022-12-24T17:42:43;98860.94;;;15.15;42.16
75072;BME280;63651;55.728;38.022;2022-12-24T17:47:44;98874.88;;;15.13;42.58
75072;BME280;63651;55.728;38.022;2022-12-24T17:52:45;98878.69;;;15.12;42.16
75072;BME280;63651;55.728;38.022;2022-12-24T17:57:46;98881.09;;;15.09;41.79
75072;BME280;63651;55.728;38.022;2022-12-24T18:02:47;98901.91;;;15.10;42.04
75072;BME280;63651;55.728;38.022;2022-12-24T18:07:48;98911.19;;;15.09;41.48
75072;BME280;63651;55.728;38.022;2022-12-24T18:12:49;98913.13;;;14.91;42.00
75072;BME280;63651;55.728;38.022;2022-12-24T18:17:54;98924.97;;;14.80;42.06
75072;BME280;63651;55.728;38.022;2022-12-24T18:22:56;98938.00;;;14.45;42.00
75072;BME280;63651;55.728;38.022;2022-12-24T18:27:57;98936.50;;;14.25;42.33
75072;BME280;63651;55.728;38.022;2022-12-24T18:32:59;98954.88;;;14.30;41.86
75072;BME280;63651;55.728;38.022;2022-12-24T18:38:00;98963.78;;;14.37;41.09
75072;BME280;63651;55.728;38.022;2022-12-24T18:43:01;98967.91;;;14.51;41.15
75072;BME280;63651;55.728;38.022;2022-12-24T18:48:02;98962.72;;;14.38;40.95
75072;BME280;63651;55.728;38.022;2022-12-24T18:53:04;98976.50;;;14.43;41.25
75072;BME280;63651;55.728;38.022;2022-12-24T18:58:05;98983.00;;;14.54;41.02
75072;BME280;63651;55.728;38.022;2022-12-24T19:03:06;98998.97;;;14.22;40.99
75072;BME280;63651;55.728;38.022;2022-12-24T19:08:08;98996.31;;;13.98;41.13
75072;BME280;63651;55.728;38.022;2022-12-24T19:13:09;99010.94;;;13.81;41.20
75072;BME280;63651;55.728;38.022;2022-12-24T19:18:10;99010.44;;;13.95;40.48
75072;BME280;63651;55.728;38.022;2022-12-24T19:23:11;99026.06;;;14.23;40.46
75072;BME280;63651;55.728;38.022;2022-12-24T19:28:12;99028.09;;;14.16;40.18
75072;BME280;63651;55.728;38.022;2022-12-24T19:33:13;99039.81;;;14.28;40.15
75072;BME280;63651;55.728;38.022;2022-12-24T19:38:14;99026.00;;;13.95;40.71
75072;BME280;63651;55.728;38.022;2022-12-24T19:43:15;99047.09;;;14.11;40.52
75072;BME280;63651;55.728;38.022;2022-12-24T19:48:16;99051.56;;;14.40;39.70
75072;BME280;63651;55.728;38.022;2022-12-24T19:53:17;99065.03;;;14.07;40.40
75072;BME280;63651;55.728;38.022;2022-12-24T19:58:18;99069.13;;;13.81;40.47
75072;BME280;63651;55.728;38.022;2022-12-24T20:03:19;99075.03;;;14.01;39.64
75072;BME280;63651;55.728;38.022;2022-12-24T20:08:20;99085.38;;;13.88;40.19
75072;BME280;63651;55.728;38.022;2022-12-24T20:13:21;99087.75;;;13.49;40.47
75072;BME280;63651;55.728;38.022;2022-12-24T20:18:22;99093.09;;;13.79;39.91
75072;BME280;63651;55.728;38.022;2022-12-24T20:23:23;99098.31;;;13.81;40.11
75072;BME280;63651;55.728;38.022;2022-12-24T20:28:25;99090.59;;;13.66;40.11
75072;BME280;63651;55.728;38.022;2022-12-24T20:33:27;99111.25;;;13.62;40.53
75072;BME280;63651;55.728;38.022;2022-12-24T20:38:28;99113.13;;;13.61;40.10
75072;BME280;63651;55.728;38.022;2022-12-24T20:43:31;99126.91;;;13.66;40.56
75072;BME280;63651;55.728;38.022;2022-12-24T20:48:33;99131.41;;;13.49;40.29
75072;BME280;63651;55.728;38.022;2022-12-24T20:53:35;99147.75;;;13.37;40.48
75072;BME280;63651;55.728;38.022;2022-12-24T20:58:36;99141.88;;;13.22;40.34
75072;BME280;63651;55.728;38.022;2022-12-24T21:03:37;99155.66;;;13.27;40.45
75072;BME280;63651;55.728;38.022;2022-12-24T21:08:38;99154.16;;;13.13;40.90
75072;BME280;63651;55.728;38.022;2022-12-24T21:13:39;99156.84;;;13.31;40.66
75072;BME280;63651;55.728;38.022;2022-12-24T21:18:40;99173.28;;;13.55;40.28
75072;BME280;63651;55.728;38.022;2022-12-24T21:23:41;99183.50;;;13.18;40.45
75072;BME280;63651;55.728;38.022;2022-12-24T21:28:43;99191.44;;;13.19;40.85
75072;BME280;63651;55.728;38.022;2022-12-24T21:33:45;99183.41;;;13.24;40.60
75072;BME280;63651;55.728;38.022;2022-12-24T21:38:46;99193.41;;;13.12;40.62
75072;BME280;63651;55.728;38.022;2022-12-24T21:43:48;99196.66;;;13.21;40.39
75072;BME280;63651;55.728;38.022;2022-12-24T21:48:50;99204.66;;;13.34;40.14
75072;BME280;63651;55.728;38.022;2022-12-24T21:54:10;99212.88;;;13.45;39.94
75072;BME280;63651;55.728;38.022;2022-12-24T21:59:24;99215.72;;;13.39;40.57
75072;BME280;63651;55.728;38.022;2022-12-24T22:04:25;99215.94;;;13.37;40.48
75072;BME280;63651;55.728;38.022;2022-12-24T22:09:26;99221.59;;;13.24;40.78
75072;BME280;63651;55.728;38.022;2022-12-24T22:14:46;99232.94;;;13.21;41.11
75072;BME280;63651;55.728;38.022;2022-12-24T22:19:47;99243.91;;;13.33;40.60
75072;BME280;63651;55.728;38.022;2022-12-24T22:24:48;99239.53;;;13.32;40.20
75072;BME280;63651;55.728;38.022;2022-12-24T22:29:49;99246.00;;;13.19;40.36
75072;BME280;63651;55.728;38.022;2022-12-24T22:34:50;99257.50;;;13.21;40.67
75072;BME280;63651;55.728;38.022;2022-12-24T22:39:53;99266.78;;;13.13;40.81
75072;BME280;63651;55.728;38.022;2022-12-24T22:44:54;99269.28;;;13.33;40.12
75072;BME280;63651;55.728;38.022;2022-12-24T22:49:55;99276.47;;;13.46;40.07
75072;BME280;63651;55.728;38.022;2022-12-24T22:54:56;99284.34;;;13.54;40.40
75072;BME280;63651;55.728;38.022;2022-12-24T22:59:57;99288.72;;;13.55;39.98
75072;BME280;63651;55.728;38.022;2022-12-24T23:04:58;99297.06;;;13.60;39.91
75072;BME280;63651;55.728;38.022;2022-12-24T23:09:59;99305.34;;;13.54;40.09
75072;BME280;63651;55.728;38.022;2022-12-24T23:15:00;99323.06;;;13.63;39.87
75072;BME280;63651;55.728;38.022;2022-12-24T23:20:02;99330.19;;;13.64;39.83
75072;BME280;63651;55.728;38.022;2022-12-24T23:25:03;99332.41;;;13.37;40.25
75072;BME280;63651;55.728;38.022;2022-12-24T23:30:05;99342.97;;;12.90;40.82
75072;BME280;63651;55.728;38.022;2022-12-24T23:35:06;99344.50;;;13.04;41.14
75072;BME280;63651;55.728;38.022;2022-12-24T23:40:08;99351.03;;;13.03;41.03
75072;BME280;63651;55.728;38.022;2022-12-24T23:45:09;99357.59;;;13.21;40.48
75072;BME280;63651;55.728;38.022;2022-12-24T23:50:10;99364.16;;;13.31;40.28
75072;BME280;63651;55.728;38.022;2022-12-24T23:55:11;99372.09;;;13.14;40.43
